Time;durP1;ratioP1;P1;durP2;ratioP2;P2;SDS_P1;SDS_P2;PMS_P1;PMS_P2;Temp;Humidity;BMP_temperature;BMP_pressure;BME280_temperature;BME280_humidity;BME280_pressure;Samples;Min_cycle;Max_cycle;Signal;HPM_P1;HPM_P2
2022/05/08 00:02:23;;;;;;;1999.90;999.90;;;;;;;18.61;62.54;95817.63;4975341;28;20022;-67
2022/05/08 00:04:52;;;;;;;1999.90;999.90;;;;;;;18.49;62.78;95804.19;4974944;28;20037;-68
2022/05/08 00:07:21;;;;;;;1999.90;999.90;;;;;;;18.53;62.52;95808.56;4992541;28;20368;-68
2022/05/08 00:09:47;;;;;;;1999.90;999.90;;;;;;;18.56;62.67;95815.19;4991747;28;20081;-67
2022/05/08 00:12:14;;;;;;;1999.90;999.90;;;;;;;18.56;62.25;95818.66;4992243;28;20467;-67
2022/05/08 00:14:44;;;;;;;1999.90;999.90;;;;;;;18.33;62.32;95785.25;4992237;28;20097;-67
2022/05/08 00:17:11;;;;;;;1999.90;999.90;;;;;;;18.44;62.51;95797.91;4974529;28;20068;-67
2022/05/08 00:19:41;;;;;;;1999.90;999.90;;;;;;;18.56;62.39;95809.78;4991688;28;20030;-67
2022/05/08 00:22:07;;;;;;;1999.90;999.90;;;;;;;18.67;62.14;95811.69;4991578;28;20033;-67
2022/05/08 00:24:33;;;;;;;1999.90;999.90;;;;;;;18.43;62.12;95763.22;4992127;28;20403;-66
2022/05/08 00:26:58;;;;;;;1999.90;999.90;;;;;;;18.72;61.73;95809.91;4974619;28;20022;-67
2022/05/08 00:29:24;;;;;;;1999.90;999.90;;;;;;;18.82;61.70;95812.91;4991788;28;20405;-68
2022/05/08 00:31:49;;;;;;;1999.90;999.90;;;;;;;18.80;61.44;95800.91;4991784;28;20037;-67
2022/05/08 00:34:15;;;;;;;1999.90;999.90;;;;;;;18.88;60.89;95791.91;4991918;28;20058;-67
2022/05/08 00:36:40;;;;;;;1999.90;999.90;;;;;;;18.61;60.26;95802.25;4991824;28;20531;-68
2022/05/08 00:39:06;;;;;;;1999.90;999.90;;;;;;;18.42;60.80;95810.13;4973813;28;20022;-68
2022/05/08 00:41:31;;;;;;;1999.90;999.90;;;;;;;18.42;60.92;95775.88;4991763;28;20360;-68
2022/05/08 00:43:57;;;;;;;1999.90;999.90;;;;;;;18.65;61.25;95789.69;4991552;28;20036;-67
2022/05/08 00:46:22;;;;;;;1999.90;999.90;;;;;;;18.73;60.53;95787.22;4974196;28;20026;-67
2022/05/08 00:48:47;;;;;;;1999.90;999.90;;;;;;;18.74;59.41;95791.50;4991036;28;20030;-66
2022/05/08 00:51:15;;;;;;;1999.90;999.90;;;;;;;18.10;61.43;95760.66;4991294;28;20445;-66
2022/05/08 00:53:48;;;;;;;1999.90;999.90;;;;;;;18.58;61.08;95794.06;4974149;28;20483;-68
2022/05/08 00:56:15;;;;;;;1999.90;999.90;;;;;;;17.31;63.49;95784.94;4974165;28;20030;-66
2022/05/08 00:58:42;;;;;;;1999.90;999.90;;;;;;;17.41;63.14;95773.75;4991232;28;20533;-67
2022/05/08 01:01:11;;;;;;;1999.90;999.90;;;;;;;17.47;63.37;95779.72;4973682;28;20483;-66
2022/05/08 01:03:37;;;;;;;1999.90;999.90;;;;;;;16.93;64.65;95795.84;4991308;28;20022;-66
2022/05/08 01:06:05;;;;;;;1999.90;999.90;;;;;;;17.26;64.32;95776.28;4973665;28;20037;-66
2022/05/08 01:08:33;;;;;;;1999.90;999.90;;;;;;;17.45;63.65;95768.47;4990953;28;20030;-66
2022/05/08 01:11:00;;;;;;;1999.90;999.90;;;;;;;17.03;65.05;95754.34;4973438;28;20210;-67
2022/05/08 01:13:26;;;;;;;1999.90;999.90;;;;;;;17.21;63.95;95747.69;4973686;28;20037;-67
2022/05/08 01:15:54;;;;;;;1999.90;999.90;;;;;;;16.54;65.74;95762.13;4991018;28;20034;-67
2022/05/08 01:18:19;;;;;;;1999.90;999.90;;;;;;;16.99;65.54;95775.69;4990635;28;20038;-67
2022/05/08 01:20:46;;;;;;;1999.90;999.90;;;;;;;17.20;64.44;95778.41;4990909;28;20027;-67
2022/05/08 01:23:12;;;;;;;1999.90;999.90;;;;;;;16.60;66.40;95793.84;4990913;28;20022;-69
2022/05/08 01:26:04;;;;;;;1999.90;999.90;;;;;;;17.41;64.32;95789.13;4973354;28;20471;-67
2022/05/08 01:28:30;;;;;;;1999.90;999.90;;;;;;;18.01;63.29;95786.88;4970042;28;20456;-67
2022/05/08 01:30:56;;;;;;;1999.90;999.90;;;;;;;18.07;62.26;95791.75;4973190;28;20061;-67
2022/05/08 01:33:23;;;;;;;1999.90;999.90;;;;;;;17.95;62.37;95788.25;4990751;28;20041;-67
2022/05/08 01:35:49;;;;;;;1999.90;999.90;;;;;;;17.63;62.75;95777.16;4990509;28;20023;-67
2022/05/08 01:38:18;;;;;;;1999.90;999.90;;;;;;;18.10;62.21;95782.97;4990379;28;20031;-66
2022/05/08 01:40:44;;;;;;;1999.90;999.90;;;;;;;17.79;62.24;95755.81;4990497;28;20116;-67
2022/05/08 01:43:11;;;;;;;1999.90;999.90;;;;;;;17.94;62.72;95779.38;4973052;28;20121;-68
2022/05/08 01:45:37;;;;;;;1999.90;999.90;;;;;;;18.11;62.00;95792.63;4973121;28;20435;-66
2022/05/08 01:50:47;;;;;;;1999.90;999.90;;;;;;;18.22;61.39;95781.41;4990900;28;20045;-66
2022/05/08 01:53:13;;;;;;;1999.90;999.90;;;;;;;16.93;63.73;95762.81;4990626;28;20026;-67
2022/05/08 01:55:38;;;;;;;1999.90;999.90;;;;;;;17.60;62.96;95788.59;4972725;28;20034;-66
2022/05/08 01:58:04;;;;;;;1999.90;999.90;;;;;;;17.24;63.88;95797.31;4990152;28;20031;-67
2022/05/08 02:00:30;;;;;;;1999.90;999.90;;;;;;;17.93;62.40;95783.97;4972742;28;20133;-66
2022/05/08 02:03:01;;;;;;;1999.90;999.90;;;;;;;18.15;61.72;95779.28;4989849;28;20030;-66
2022/05/08 02:05:28;;;;;;;1999.90;999.90;;;;;;;18.48;61.26;95798.03;4990233;28;20054;-67
2022/05/08 02:07:54;;;;;;;1999.90;999.90;;;;;;;18.15;60.87;95785.44;4972818;28;20487;-66
2022/05/08 02:10:20;;;;;;;1999.90;999.90;;;;;;;18.29;60.47;95795.88;4990202;28;20402;-67
2022/05/08 02:12:45;;;;;;;1999.90;999.90;;;;;;;17.91;61.52;95786.22;4972874;28;20027;-66
2022/05/08 02:15:12;;;;;;;1999.90;999.90;;;;;;;18.24;61.12;95798.81;4990369;28;20027;-67
2022/05/08 02:17:39;;;;;;;1999.90;999.90;;;;;;;18.26;60.53;95793.06;4990092;28;20019;-67
2022/05/08 02:20:06;;;;;;;1999.90;999.90;;;;;;;18.27;60.32;95797.34;4989707;28;20084;-67
2022/05/08 02:22:33;;;;;;;1999.90;999.90;;;;;;;18.17;60.34;95772.44;4990167;28;20030;-67
2022/05/08 02:24:58;;;;;;;1999.90;999.90;;;;;;;18.28;60.28;95758.53;4972495;28;20360;-68
2022/05/08 02:27:24;;;;;;;1999.90;999.90;;;;;;;18.15;60.29;95768.50;4972685;28;20037;-68
2022/05/08 02:29:50;;;;;;;1999.90;999.90;;;;;;;17.80;61.85;95785.06;4989553;28;20045;-68
2022/05/08 02:32:16;;;;;;;1999.90;999.90;;;;;;;18.04;61.14;95773.56;4990129;28;20034;-67
2022/05/08 02:34:42;;;;;;;1999.90;999.90;;;;;;;18.27;60.74;95790.06;4972746;28;20419;-68
2022/05/08 02:37:08;;;;;;;1999.90;999.90;;;;;;;18.27;60.17;95781.19;4990096;28;20030;-68
2022/05/08 02:39:33;;;;;;;1999.90;999.90;;;;;;;17.79;61.64;95782.72;4989560;28;20160;-67
2022/05/08 02:41:58;;;;;;;1999.90;999.90;;;;;;;18.06;60.81;95771.31;4972090;28;20053;-67
2022/05/08 02:44:24;;;;;;;1999.90;999.90;;;;;;;18.28;60.50;95783.56;4990078;28;20025;-67
2022/05/08 02:46:49;;;;;;;1999.90;999.90;;;;;;;18.12;60.48;95758.44;4989922;28;20101;-67
2022/05/08 02:49:15;;;;;;;1999.90;999.90;;;;;;;17.96;60.85;95773.66;4972246;28;20034;-66
2022/05/08 02:51:40;;;;;;;1999.90;999.90;;;;;;;18.19;60.59;95777.50;4971838;28;20031;-68
2022/05/08 02:54:06;;;;;;;1999.90;999.90;;;;;;;18.27;60.18;95778.47;4988803;28;20081;-66
2022/05/08 02:59:32;;;;;;;1999.90;999.90;;;;;;;18.49;59.97;95796.91;4948380;29;20114;-66
2022/05/08 03:01:57;;;;;;;1999.90;999.90;;;;;;;18.40;59.45;95782.75;4980684;28;20158;-67
2022/05/08 03:04:22;;;;;;;1999.90;999.90;;;;;;;18.22;60.03;95774.13;4989572;28;20025;-66
2022/05/08 03:06:48;;;;;;;1999.90;999.90;;;;;;;18.11;60.26;95795.31;4972323;28;20434;-66
2022/05/08 03:09:13;;;;;;;1999.90;999.90;;;;;;;18.35;59.98;95777.59;4971895;28;20037;-66
2022/05/08 03:11:38;;;;;;;1999.90;999.90;;;;;;;18.14;60.54;95783.88;4989639;28;20112;-67
2022/05/08 03:14:04;;;;;;;1999.90;999.90;;;;;;;18.35;60.12;95789.16;4992448;28;20034;-65
2022/05/08 03:16:30;;;;;;;1999.90;999.90;;;;;;;18.37;59.71;95776.13;4975988;28;20101;-66
2022/05/08 03:18:55;;;;;;;1999.90;999.90;;;;;;;18.46;59.61;95789.47;4992928;28;20149;-67
2022/05/08 03:21:22;;;;;;;1999.90;999.90;;;;;;;18.37;59.42;95759.19;4992959;28;20396;-67
2022/05/08 03:23:48;;;;;;;1999.90;999.90;;;;;;;18.46;59.57;95789.47;4993012;28;20481;-68
2022/05/08 03:26:15;;;;;;;1999.90;999.90;;;;;;;18.21;59.76;95782.53;4993253;28;20065;-68
2022/05/08 03:28:42;;;;;;;1999.90;999.90;;;;;;;18.60;59.27;95795.31;4975146;28;20034;-67
2022/05/08 03:31:09;;;;;;;1999.90;999.90;;;;;;;18.70;58.98;95794.09;4993054;28;20606;-67
2022/05/08 03:33:36;;;;;;;1999.90;999.90;;;;;;;18.71;59.01;95795.66;5017211;23;20101;-66
2022/05/08 03:36:02;;;;;;;1999.90;999.90;;;;;;;18.51;58.76;95785.78;4994678;28;20024;-64
2022/05/08 03:38:28;;;;;;;1999.90;999.90;;;;;;;18.36;59.61;95789.94;4994205;28;20029;-63
2022/05/08 03:40:54;;;;;;;1999.90;999.90;;;;;;;18.60;59.11;95781.84;5012150;28;20038;-66
2022/05/08 03:43:21;;;;;;;1999.90;999.90;;;;;;;18.53;59.08;95784.31;5012193;28;20056;-64
2022/05/08 03:45:49;;;;;;;1999.90;999.90;;;;;;;18.07;60.30;95772.91;5012516;28;20080;-65
2022/05/08 03:48:18;;;;;;;1999.90;999.90;;;;;;;18.15;60.19;95787.34;5011932;28;20431;-63
2022/05/08 03:50:44;;;;;;;1999.90;999.90;;;;;;;18.37;59.94;95786.09;4994646;28;20064;-64
2022/05/08 03:53:09;;;;;;;1999.90;999.90;;;;;;;18.00;61.08;95782.63;4994688;28;20072;-64
2022/05/08 03:55:35;;;;;;;1999.90;999.90;;;;;;;18.01;61.14;95781.50;5012455;28;20030;-64
2022/05/08 03:58:00;;;;;;;1999.90;999.90;;;;;;;18.09;60.90;95781.41;5011643;28;20152;-64
2022/05/08 04:00:26;;;;;;;1999.90;999.90;;;;;;;17.90;61.10;95784.63;4994323;28;20038;-64
2022/05/08 04:02:52;;;;;;;1999.90;999.90;;;;;;;18.05;60.92;95775.13;5012084;28;20389;-63
2022/05/08 04:05:17;;;;;;;1999.90;999.90;;;;;;;17.86;61.42;95791.03;5011847;28;20076;-66
2022/05/08 04:07:43;;;;;;;1999.90;999.90;;;;;;;18.00;61.04;95778.03;4994354;28;20017;-64
2022/05/08 04:10:09;;;;;;;1999.90;999.90;;;;;;;18.28;60.48;95793.53;5011299;28;20376;-63
2022/05/08 04:12:35;;;;;;;1999.90;999.90;;;;;;;17.98;61.23;95787.56;5011807;28;20026;-63
2022/05/08 04:15:01;;;;;;;1999.90;999.90;;;;;;;17.93;61.39;95793.97;4994226;28;20060;-64
2022/05/08 04:17:28;;;;;;;1999.90;999.90;;;;;;;17.21;63.52;95801.47;5011528;28;20085;-63
2022/05/08 04:19:56;;;;;;;1999.90;999.90;;;;;;;17.21;63.68;95803.38;5011189;28;20030;-65
2022/05/08 04:25:07;;;;;;;1999.90;999.90;;;;;;;18.04;61.66;95799.69;5011445;28;20118;-63
2022/05/08 04:27:35;;;;;;;1999.90;999.90;;;;;;;17.24;63.35;95800.00;5011619;28;20033;-63
2022/05/08 04:30:02;;;;;;;1999.90;999.90;;;;;;;17.55;62.73;95804.94;5010989;28;20022;-66
2022/05/08 04:32:27;;;;;;;1999.90;999.90;;;;;;;17.00;63.64;95792.63;4993776;28;20022;-64
2022/05/08 04:34:52;;;;;;;1999.90;999.90;;;;;;;17.48;62.87;95805.47;5011663;28;20088;-64
2022/05/08 04:37:18;;;;;;;1999.90;999.90;;;;;;;17.59;62.96;95803.94;4993976;28;20060;-63
2022/05/08 04:39:43;;;;;;;1999.90;999.90;;;;;;;17.82;62.01;95799.00;4993551;28;20051;-64
2022/05/08 04:42:09;;;;;;;1999.90;999.90;;;;;;;17.89;61.36;95801.13;5011040;28;20030;-65
2022/05/08 04:44:34;;;;;;;1999.90;999.90;;;;;;;18.14;60.98;95805.41;4993763;28;20068;-64
2022/05/08 04:46:59;;;;;;;1999.90;999.90;;;;;;;18.10;60.41;95807.19;5011135;28;20022;-64
2022/05/08 04:49:25;;;;;;;1999.90;999.90;;;;;;;17.81;60.51;95804.69;5010897;28;20026;-63
2022/05/08 04:51:50;;;;;;;1999.90;999.90;;;;;;;17.77;61.38;95817.25;5010832;28;20044;-64
2022/05/08 04:54:15;;;;;;;1999.90;999.90;;;;;;;17.91;60.60;95786.22;4993585;28;20021;-64
2022/05/08 04:56:41;;;;;;;1999.90;999.90;;;;;;;18.09;60.26;95808.34;5011002;28;20062;-64
2022/05/08 04:59:06;;;;;;;1999.90;999.90;;;;;;;18.06;60.29;95818.97;5010476;28;20061;-63
2022/05/08 05:01:31;;;;;;;1999.90;999.90;;;;;;;17.76;60.80;95797.66;5010818;28;20033;-65
2022/05/08 05:03:57;;;;;;;1999.90;999.90;;;;;;;18.04;60.12;95827.41;4993036;28;20080;-64
2022/05/08 05:06:22;;;;;;;1999.90;999.90;;;;;;;17.91;60.36;95802.38;5010954;28;20049;-64
2022/05/08 05:08:47;;;;;;;1999.90;999.90;;;;;;;17.60;61.24;95831.63;5010381;28;20431;-64
2022/05/08 05:11:13;;;;;;;1999.90;999.90;;;;;;;18.15;60.16;95817.75;5010808;28;20029;-64
2022/05/08 05:13:39;;;;;;;1999.90;999.90;;;;;;;18.23;59.64;95823.38;4993147;28;20022;-64
2022/05/08 05:16:05;;;;;;;1999.90;999.90;;;;;;;18.27;59.00;95819.69;4992985;28;20022;-65
2022/05/08 05:18:30;;;;;;;1999.90;999.90;;;;;;;18.29;59.26;95814.75;5010177;28;20473;-64
2022/05/08 05:20:56;;;;;;;1999.90;999.90;;;;;;;18.45;58.39;95831.00;4992220;28;20040;-65
2022/05/08 05:23:21;;;;;;;1999.90;999.90;;;;;;;18.58;58.35;95829.91;5010416;28;20058;-64
2022/05/08 05:25:48;;;;;;;1999.90;999.90;;;;;;;18.60;57.62;95806.09;5010543;28;20062;-64
2022/05/08 05:28:13;;;;;;;1999.90;999.90;;;;;;;18.86;57.63;95813.03;4992670;28;20390;-66
2022/05/08 05:30:39;;;;;;;1999.90;999.90;;;;;;;19.00;57.28;95824.25;5010203;28;20026;-64
2022/05/08 05:33:04;;;;;;;1999.90;999.90;;;;;;;19.20;56.84;95811.72;5010471;28;20037;-65
2022/05/08 05:35:30;;;;;;;1999.90;999.90;;;;;;;19.07;56.55;95816.34;4992955;28;20018;-65
2022/05/08 05:37:55;;;;;;;1999.90;999.90;;;;;;;19.23;56.26;95822.59;5009372;28;20030;-65
2022/05/08 05:40:20;;;;;;;1999.90;999.90;;;;;;;19.31;55.83;95825.50;5009886;28;20064;-65
2022/05/08 05:42:47;;;;;;;1999.90;999.90;;;;;;;19.25;55.93;95827.66;4992751;28;20030;-65
2022/05/08 05:45:12;;;;;;;1999.90;999.90;;;;;;;19.21;55.98;95837.56;5010118;28;20025;-66
2022/05/08 05:47:49;;;;;;;1999.90;999.90;;;;;;;19.18;55.87;95830.91;4992538;28;20030;-65
2022/05/08 05:50:22;;;;;;;1999.90;999.90;;;;;;;19.11;56.37;95846.13;5009847;28;20538;-65
2022/05/08 05:52:48;;;;;;;1999.90;999.90;;;;;;;19.18;56.00;95844.41;5010063;28;20101;-64
2022/05/08 05:55:14;;;;;;;1999.90;999.90;;;;;;;19.31;55.96;95834.38;4992414;28;20026;-65
2022/05/08 05:57:39;;;;;;;1999.90;999.90;;;;;;;19.08;56.48;95841.41;5010063;28;20152;-64
2022/05/08 06:00:16;;;;;;;1999.90;999.90;;;;;;;19.44;55.67;95845.88;4991789;28;20087;-65
2022/05/08 06:02:43;;;;;;;1999.90;999.90;;;;;;;19.26;55.63;95836.53;5009922;28;20029;-65
2022/05/08 06:05:10;;;;;;;1999.90;999.90;;;;;;;19.44;55.23;95848.59;4992276;28;20029;-65
2022/05/08 06:07:39;;;;;;;1999.90;999.90;;;;;;;19.83;54.82;95840.81;4992391;28;20033;-65
2022/05/08 06:10:07;;;;;;;1999.90;999.90;;;;;;;19.22;55.73;95856.06;4991659;28;20022;-65
2022/05/08 06:12:33;;;;;;;1999.90;999.90;;;;;;;18.93;56.67;95842.88;5009710;28;20036;-68
2022/05/08 06:14:58;;;;;;;1999.90;999.90;;;;;;;19.29;55.70;95841.22;5009865;28;20041;-65
2022/05/08 06:17:24;;;;;;;1999.90;999.90;;;;;;;19.32;55.34;95852.13;5009583;28;20029;-65
2022/05/08 06:19:49;;;;;;;1999.90;999.90;;;;;;;19.16;55.93;95849.34;5009158;28;20378;-66
2022/05/08 06:22:15;;;;;;;1999.90;999.90;;;;;;;19.23;56.27;95848.78;5009659;28;20022;-65
2022/05/08 06:24:43;;;;;;;1999.90;999.90;;;;;;;19.11;55.83;95844.22;5009716;28;20029;-65
2022/05/08 06:27:08;;;;;;;1999.90;999.90;;;;;;;19.89;54.30;95863.72;5009671;28;20030;-65
2022/05/08 06:29:34;;;;;;;1999.90;999.90;;;;;;;19.84;54.07;95855.88;4991713;28;20533;-65
2022/05/08 06:32:03;;;;;;;1999.90;999.90;;;;;;;20.24;53.35;95853.03;5009432;28;20028;-64
2022/05/08 06:34:29;;;;;;;1999.90;999.90;;;;;;;20.16;54.09;95852.06;5009577;28;20038;-65
2022/05/08 06:36:55;;;;;;;1999.90;999.90;;;;;;;19.33;54.25;95853.69;5009417;28;20110;-65
2022/05/08 06:39:21;;;;;;;1999.90;999.90;;;;;;;20.36;52.73;95844.84;4991470;28;20022;-65
2022/05/08 06:41:47;;;;;;;1999.90;999.90;;;;;;;20.42;53.00;95856.16;5009468;28;20038;-65
2022/05/08 06:44:15;;;;;;;1999.90;999.90;;;;;;;20.16;52.65;95848.59;5009568;28;20028;-65
2022/05/08 06:46:41;;;;;;;1999.90;999.90;;;;;;;20.61;51.72;95850.88;5009364;28;20384;-65
2022/05/08 06:49:07;;;;;;;1999.90;999.90;;;;;;;20.79;50.90;95866.72;4994119;28;20026;-64
2022/05/08 06:51:35;;;;;;;1999.90;999.90;;;;;;;20.70;50.83;95837.97;5012991;28;20021;-65
2022/05/08 06:54:01;;;;;;;1999.90;999.90;;;;;;;20.26;52.28;95856.16;5013279;28;20391;-64
2022/05/08 06:56:30;;;;;;;1999.90;999.90;;;;;;;20.17;52.24;95853.66;5013313;28;20022;-64
2022/05/08 07:01:39;;;;;;;1999.90;999.90;;;;;;;19.71;53.32;95855.94;5013252;28;20096;-64
2022/05/08 07:04:09;;;;;;;1999.90;999.90;;;;;;;19.22;54.19;95858.00;5012848;28;20034;-64
2022/05/08 07:06:36;;;;;;;1999.90;999.90;;;;;;;19.06;54.86;95868.72;5012952;28;20073;-64
2022/05/08 07:09:03;;;;;;;1999.90;999.90;;;;;;;19.11;54.63;95857.69;4994875;28;20116;-64
2022/05/08 07:11:30;;;;;;;1999.90;999.90;;;;;;;19.23;53.91;95852.25;4995213;28;20493;-65
2022/05/08 07:13:56;;;;;;;1999.90;999.90;;;;;;;19.54;54.09;95864.28;4995146;28;20108;-65
2022/05/08 07:16:22;;;;;;;1999.90;999.90;;;;;;;19.81;53.08;95851.97;4995275;28;20025;-64
2022/05/08 07:18:47;;;;;;;1999.90;999.90;;;;;;;20.35;51.93;95869.50;5012668;28;20064;-65
2022/05/08 07:21:12;;;;;;;1999.90;999.90;;;;;;;20.03;52.31;95861.41;4995039;28;20159;-65
2022/05/08 07:23:38;;;;;;;1999.90;999.90;;;;;;;19.73;53.31;95869.88;4995186;28;20073;-66
2022/05/08 07:26:03;;;;;;;1999.90;999.90;;;;;;;19.81;53.49;95876.25;5012501;28;20076;-65
2022/05/08 07:28:28;;;;;;;1999.90;999.90;;;;;;;19.55;53.31;95873.97;5012182;28;20477;-64
2022/05/08 07:30:54;;;;;;;1999.90;999.90;;;;;;;19.62;53.73;95887.69;5012222;28;20548;-64
2022/05/08 07:33:20;;;;;;;1999.90;999.90;;;;;;;19.32;53.87;95867.53;5012472;28;20088;-64
2022/05/08 07:38:30;;;;;;;1999.90;999.90;;;;;;;19.76;53.13;95881.09;5012500;28;20032;-64
2022/05/08 07:40:56;;;;;;;1999.90;999.90;;;;;;;19.83;52.28;95881.31;5012302;28;20030;-64
2022/05/08 07:43:22;;;;;;;1999.90;999.90;;;;;;;19.73;52.86;95882.56;5012487;28;20037;-64
2022/05/08 07:45:47;;;;;;;1999.90;999.90;;;;;;;19.99;52.06;95874.78;5012478;28;20711;-64
2022/05/08 07:48:13;;;;;;;1999.90;999.90;;;;;;;19.62;52.65;95884.19;5011749;28;20574;-64
2022/05/08 07:50:39;;;;;;;1999.90;999.90;;;;;;;19.96;52.58;95883.59;5012144;28;20033;-66
2022/05/08 07:53:04;;;;;;;1999.90;999.90;;;;;;;20.15;52.07;95882.13;5012411;28;20489;-67
2022/05/08 07:55:31;;;;;;;1999.90;999.90;;;;;;;20.45;51.00;95880.59;5003176;28;20057;-67
2022/05/08 07:57:56;;;;;;;1999.90;999.90;;;;;;;20.65;50.17;95883.41;4970738;28;20049;-66
2022/05/08 08:00:22;;;;;;;1999.90;999.90;;;;;;;21.04;49.44;95884.31;4985739;28;20121;-67
2022/05/08 08:02:47;;;;;;;1999.90;999.90;;;;;;;21.46;49.06;95898.00;4970193;28;20050;-68
2022/05/08 08:05:12;;;;;;;1999.90;999.90;;;;;;;21.47;48.46;95896.84;4972350;28;20027;-69
2022/05/08 08:07:39;;;;;;;1999.90;999.90;;;;;;;21.40;48.49;95893.22;4966229;28;20417;-67
2022/05/08 08:10:05;;;;;;;1999.90;999.90;;;;;;;20.91;49.39;95883.63;4987951;28;20113;-67
2022/05/08 08:12:31;;;;;;;1999.90;999.90;;;;;;;21.29;48.99;95887.53;4970427;28;20030;-68
2022/05/08 08:14:57;;;;;;;1999.90;999.90;;;;;;;21.18;48.57;95890.00;4971662;28;20035;-72
2022/05/08 08:17:22;;;;;;;1999.90;999.90;;;;;;;21.53;48.31;95889.22;4973089;28;20545;-70
2022/05/08 08:19:48;;;;;;;1999.90;999.90;;;;;;;22.21;46.96;95890.53;4973023;28;20122;-70
2022/05/08 08:22:13;;;;;;;1999.90;999.90;;;;;;;22.69;44.62;95889.03;4973780;28;22034;-69
2022/05/08 08:24:40;;;;;;;1999.90;999.90;;;;;;;23.20;45.32;95901.44;4981357;28;20030;-70
2022/05/08 08:27:07;;;;;;;1999.90;999.90;;;;;;;23.20;44.54;95901.44;4972653;28;20476;-69
2022/05/08 08:29:32;;;;;;;1999.90;999.90;;;;;;;23.17;44.46;95896.72;4972061;28;20065;-71
2022/05/08 08:31:58;;;;;;;1999.90;999.90;;;;;;;22.88;43.59;95896.34;4973464;28;20188;-72
2022/05/08 08:34:23;;;;;;;1999.90;999.90;;;;;;;22.98;43.47;95900.31;4973146;28;20084;-69
2022/05/08 08:36:49;;;;;;;1999.90;999.90;;;;;;;22.46;43.61;95894.44;4989282;28;20038;-71
2022/05/08 08:39:15;;;;;;;1999.90;999.90;;;;;;;22.04;45.00;95905.28;4972932;28;20117;-71
2022/05/08 08:41:43;;;;;;;1999.90;999.90;;;;;;;22.01;45.67;95914.16;4973205;28;20053;-65
2022/05/08 08:49:51;;;;;;;1999.90;999.90;;;;;;;21.37;48.45;95912.84;4990401;28;20069;-65
2022/05/08 08:52:20;;;;;;;1999.90;999.90;;;;;;;21.30;47.83;95908.09;4990114;28;20036;-68
2022/05/08 08:54:46;;;;;;;1999.90;999.90;;;;;;;21.63;46.94;95909.53;4973937;28;20034;-69
2022/05/08 08:57:13;;;;;;;1999.90;999.90;;;;;;;21.28;47.53;95916.50;4989766;28;20543;-67
2022/05/08 08:59:39;;;;;;;1999.90;999.90;;;;;;;20.92;48.01;95919.56;4971742;28;20526;-69
2022/05/08 09:02:15;;;;;;;1999.90;999.90;;;;;;;19.86;50.72;95919.19;4972501;28;20034;-68
2022/05/08 09:04:44;;;;;;;1999.90;999.90;;;;;;;19.81;51.10;95910.53;4988649;28;20033;-69
2022/05/08 09:07:45;;;;;;;1999.90;999.90;;;;;;;19.96;51.32;95928.69;4971441;28;20060;-70
2022/05/08 09:10:22;;;;;;;1999.90;999.90;;;;;;;19.12;52.85;95918.56;4988186;28;20430;-65
2022/05/08 09:12:57;;;;;;;1999.90;999.90;;;;;;;20.04;51.14;95935.88;4972601;28;20037;-65
2022/05/08 09:15:25;;;;;;;1999.90;999.90;;;;;;;20.44;49.92;95929.56;4991231;28;20034;-65
2022/05/08 09:17:56;;;;;;;1999.90;999.90;;;;;;;20.52;49.64;95907.00;4973583;28;20022;-66
2022/05/08 09:20:53;;;;;;;1999.90;999.90;;;;;;;20.78;49.13;95933.53;4990760;28;20041;-65
2022/05/08 09:23:19;;;;;;;1999.90;999.90;;;;;;;19.86;50.47;95924.59;4964001;28;20049;-68
2022/05/08 09:25:59;;;;;;;1999.90;999.90;;;;;;;19.85;50.91;95936.50;4988998;28;20390;-67
2022/05/08 09:28:29;;;;;;;1999.90;999.90;;;;;;;19.61;51.28;95917.72;4960126;28;20113;-68
2022/05/08 09:31:06;;;;;;;1999.90;999.90;;;;;;;20.16;50.88;95932.31;4973832;28;20033;-67
2022/05/08 09:33:37;;;;;;;1999.90;999.90;;;;;;;20.37;50.31;95937.50;4991329;28;20026;-67
2022/05/08 09:36:04;;;;;;;1999.90;999.90;;;;;;;21.24;49.25;95923.78;4973823;28;20022;-68
2022/05/08 09:38:48;;;;;;;1999.90;999.90;;;;;;;21.61;47.93;95931.56;4989419;28;20062;-67
2022/05/08 09:41:23;;;;;;;1999.90;999.90;;;;;;;22.06;46.74;95922.00;4991641;28;20061;-67
2022/05/08 09:43:51;;;;;;;1999.90;999.90;;;;;;;22.31;46.09;95931.38;4973661;28;20022;-67
2022/05/08 09:46:17;;;;;;;1999.90;999.90;;;;;;;22.13;45.76;95921.38;4973604;28;20034;-67
2022/05/08 09:48:43;;;;;;;1999.90;999.90;;;;;;;22.05;45.93;95933.94;4990911;28;20028;-67
2022/05/08 09:51:16;;;;;;;1999.90;999.90;;;;;;;21.06;47.38;95927.22;4973558;28;20027;-68
2022/05/08 09:53:43;;;;;;;1999.90;999.90;;;;;;;20.37;48.83;95910.47;4989770;28;20023;-67
2022/05/08 09:56:10;;;;;;;1999.90;999.90;;;;;;;21.64;46.27;95930.81;4973594;28;20073;-67
2022/05/08 09:58:39;;;;;;;1999.90;999.90;;;;;;;21.53;46.38;95933.31;4973102;28;20166;-68
2022/05/08 10:01:06;;;;;;;1999.90;999.90;;;;;;;22.14;45.82;95934.53;4990834;28;20138;-67
2022/05/08 10:03:32;;;;;;;1999.90;999.90;;;;;;;22.50;44.25;95913.50;4991064;28;20387;-68
2022/05/08 10:06:00;;;;;;;1999.90;999.90;;;;;;;21.98;44.72;95917.56;4990829;28;20031;-68
2022/05/08 10:08:30;;;;;;;1999.90;999.90;;;;;;;22.42;43.74;95912.59;4972022;28;20644;-67
2022/05/08 10:13:57;;;;;;;1999.90;999.90;;;;;;;21.08;47.07;95923.00;4991363;28;20104;-67
2022/05/08 10:16:52;;;;;;;1999.90;999.90;;;;;;;22.17;45.29;95923.00;4991387;28;20085;-67
2022/05/08 10:19:17;;;;;;;1999.90;999.90;;;;;;;22.84;44.05;95930.72;4990498;28;20034;-67
2022/05/08 10:22:14;;;;;;;1999.90;999.90;;;;;;;22.17;44.30;95909.44;4972881;28;20077;-68
2022/05/08 10:24:47;;;;;;;1999.90;999.90;;;;;;;22.39;44.52;95928.81;4972636;28;20525;-67
2022/05/08 10:27:25;;;;;;;1999.90;999.90;;;;;;;21.21;46.66;95915.59;4972936;28;20391;-68
2022/05/08 10:29:50;;;;;;;1999.90;999.90;;;;;;;21.89;45.83;95931.31;4990148;28;20400;-67
2022/05/08 10:32:34;;;;;;;1999.90;999.90;;;;;;;22.19;45.70;95925.34;4990672;28;20037;-67
2022/05/08 10:35:11;;;;;;;1999.90;999.90;;;;;;;21.56;46.81;95928.34;4973025;28;20733;-67
2022/05/08 10:37:47;;;;;;;1999.90;999.90;;;;;;;22.51;44.89;95925.91;4971626;28;20031;-67
2022/05/08 10:40:25;;;;;;;1999.90;999.90;;;;;;;22.79;42.96;95926.38;4989966;28;20399;-67
2022/05/08 10:42:54;;;;;;;1999.90;999.90;;;;;;;23.73;41.16;95910.28;4990652;28;20053;-68
2022/05/08 10:45:32;;;;;;;1999.90;999.90;;;;;;;23.52;41.72;95920.88;4973312;28;20105;-67
2022/05/08 10:48:17;;;;;;;1999.90;999.90;;;;;;;22.78;41.80;95927.53;4990624;28;20475;-67
2022/05/08 10:50:43;;;;;;;1999.90;999.90;;;;;;;23.03;41.92;95914.41;4990216;28;20041;-67
2022/05/08 10:53:35;;;;;;;1999.90;999.90;;;;;;;23.34;41.79;95921.44;4988946;28;20085;-67
2022/05/08 10:56:13;;;;;;;1999.90;999.90;;;;;;;22.93;42.09;95919.63;4990449;28;20538;-68
2022/05/08 10:58:41;;;;;;;1999.90;999.90;;;;;;;23.05;41.44;95917.50;4972636;28;20030;-68
2022/05/08 11:01:11;;;;;;;1999.90;999.90;;;;;;;22.89;41.70;95914.16;4990043;28;20030;-69
2022/05/08 11:03:37;;;;;;;1999.90;999.90;;;;;;;22.55;42.54;95921.34;4990340;28;20061;-68
2022/05/08 11:06:05;;;;;;;1999.90;999.90;;;;;;;23.45;41.80;95909.94;4989383;28;20081;-69
2022/05/08 11:08:32;;;;;;;1999.90;999.90;;;;;;;23.71;40.62;95909.91;4987021;28;20458;-67
2022/05/08 11:11:09;;;;;;;1999.90;999.90;;;;;;;24.19;39.76;95895.66;4970752;28;20522;-67
2022/05/08 11:13:42;;;;;;;1999.90;999.90;;;;;;;24.03;40.35;95904.81;4989093;28;20026;-67
2022/05/08 11:16:08;;;;;;;1999.90;999.90;;;;;;;24.53;38.62;95904.56;4990119;28;20097;-67
2022/05/08 11:18:34;;;;;;;1999.90;999.90;;;;;;;24.73;38.46;95900.47;4989551;28;20026;-67
2022/05/08 11:21:02;;;;;;;1999.90;999.90;;;;;;;24.58;38.30;95905.00;4989329;28;20030;-68